X  Close Metar Aviation Weather Data     KOMA Eppley Airfield
Temperature
66°F Temperature
59°F Dewpoint
78% Humidity



Wind
8 MPH
13 KM/H
4 M/S
7 KTS



180°
South
Current Conditions

Mostly Scattered Clouds Mostly Scattered Clouds
Pressure 1006.1 (hPa) - 29.71 (inHg)
Visibility 10 (mile) - 16.1 (km)
Airport
Airport-code KOMA

Location: Eppley Airfield
Distance: 20 (mi)

Metar:
KOMA 200152Z 18007KT 10SM SCT049 BKN100 19/15 A2971 RMK AO2 PK WND 04033/0111 RAE30 SLP057 P0004 T01890150

Time: 05-20-2024 01:52 CDT